Map

Track Data

SID SEASON NUMBER BASIN SUBBASIN NAME ISO_TIME NATURE LAT LON WMO_WIND WMO_PRES WMO_AGENCY TRACK_TYPE DIST2LAND LANDFALL IFLAG USA_AGENCY USA_ATCF_ID USA_LAT USA_LON USA_RECORD USA_STATUS USA_WIND USA_PRES USA_SSHS USA_R34_NE USA_R34_SE USA_R34_SW USA_R34_NW USA_R50_NE USA_R50_SE USA_R50_SW USA_R50_NW USA_R64_NE USA_R64_SE USA_R64_SW USA_R64_NW USA_POCI USA_ROCI USA_RMW USA_EYE TOKYO_LAT TOKYO_LON TOKYO_GRADE TOKYO_WIND TOKYO_PRES TOKYO_R50_DIR TOKYO_R50_LONG TOKYO_R50_SHORT TOKYO_R30_DIR TOKYO_R30_LONG TOKYO_R30_SHORT TOKYO_LAND CMA_LAT CMA_LON CMA_CAT CMA_WIND CMA_PRES HKO_LAT HKO_LON HKO_CAT HKO_WIND HKO_PRES NEWDELHI_LAT NEWDELHI_LON NEWDELHI_GRADE NEWDELHI_WIND NEWDELHI_PRES NEWDELHI_CI NEWDELHI_DP NEWDELHI_POCI REUNION_LAT REUNION_LON REUNION_TYPE REUNION_WIND REUNION_PRES REUNION_TNUM REUNION_CI REUNION_RMW REUNION_R34_NE REUNION_R34_SE REUNION_R34_SW REUNION_R34_NW REUNION_R50_NE REUNION_R50_SE REUNION_R50_SW REUNION_R50_NW REUNION_R64_NE REUNION_R64_SE REUNION_R64_SW REUNION_R64_NW BOM_LAT BOM_LON BOM_TYPE BOM_WIND BOM_PRES BOM_TNUM BOM_CI BOM_RMW BOM_R34_NE BOM_R34_SE BOM_R34_SW BOM_R34_NW BOM_R50_NE BOM_R50_SE BOM_R50_SW BOM_R50_NW BOM_R64_NE BOM_R64_SE BOM_R64_SW BOM_R64_NW BOM_ROCI BOM_POCI BOM_EYE BOM_POS_METHOD BOM_PRES_METHOD NADI_LAT NADI_LON NADI_CAT NADI_WIND NADI_PRES WELLINGTON_LAT WELLINGTON_LON WELLINGTON_WIND WELLINGTON_PRES DS824_LAT DS824_LON DS824_STAGE DS824_WIND DS824_PRES TD9636_LAT TD9636_LON TD9636_STAGE TD9636_WIND TD9636_PRES TD9635_LAT TD9635_LON TD9635_WIND TD9635_PRES TD9635_ROCI NEUMANN_LAT NEUMANN_LON NEUMANN_CLASS NEUMANN_WIND NEUMANN_PRES MLC_LAT MLC_LON MLC_CLASS MLC_WIND MLC_PRES USA_GUST BOM_GUST BOM_GUST_PER REUNION_GUST REUNION_GUST_PER USA_SEAHGT USA_SEARAD_NE USA_SEARAD_SE USA_SEARAD_SW USA_SEARAD_NW STORM_SPEED STORM_DIR
1967072S15149 1967 21 SP EA ELAINE 1967-03-13 05:00:00 NR -14.7000 149.300 998 bom main 424 422 ______O_______ -1 -14.7000 149.300 998 5 162
1967072S15149 1967 21 SP EA ELAINE 1967-03-13 06:00:00 TS -14.7754 149.305 main 422 408 ______P__O__O_ -1 -14.8007 149.259 998 -14.8000 149.200 TC 35 998 -14.7000 149.500 TC 35 998 6 197
1967072S15149 1967 21 SP EA ELAINE 1967-03-13 09:00:00 TS -15.0767 149.182 main 408 396 ______P__P__P_ -1 -15.1016 149.121 998 -15.1059 149.071 TC 35 998 -15.0100 149.383 TC 35 998 5 208
1967072S15149 1967 21 SP EA ELAINE 1967-03-13 11:00:00 TS -15.1666 149.092 998 bom main 396 387 ______O__PO_P_ -1 -15.3000 149.000 998 -15.3040 148.964 TC 35 998 -14.1000 149.300 7 -15.2068 149.272 TC 35 998 3 261
1967072S15149 1967 21 SP EA ELAINE 1967-03-13 12:00:00 TS -15.1001 149.036 main 387 348 O_____P__OP_O_ jtwc_sh SH241967 -14.3000 149.100 -1 -15.3981 148.927 998 -15.4000 148.900 TC 35 998 -14.3046 149.136 7 -15.3000 149.200 TC 35 998 7 240
1967072S15149 1967 21 SP EA ELAINE 1967-03-13 15:00:00 TS -15.3920 148.693 main 348 294 P_____P__PP_P_ SH241967 -15.0228 148.569 -1 -15.6834 148.664 998 -15.6716 148.657 TC 35 998 -14.9023 148.652 7 -15.5576 148.915 TC 35 998 9 228
1967072S15149 1967 21 SP EA ELAINE 1967-03-13 18:00:00 TS -15.7279 148.306 main 294 250 O_____P__PP_O_ jtwc_sh SH241967 -15.6000 148.100 -1 -15.9459 148.367 998 -15.9151 148.367 TC 35 998 -15.4424 148.201 7 -15.8000 148.600 TC 35 998 9 228
1967072S15149 1967 21 SP EA ELAINE 1967-03-13 21:00:00 TS -16.0199 147.963 main 250 221 P_____P__PP_P_ SH241967 -15.9324 147.747 -1 -16.1735 148.074 998 -16.1260 148.069 TC 35 998 -15.8827 147.812 7 -16.0725 148.328 TC 35 998 8 229
1967072S15149 1967 21 SP EA ELAINE 1967-03-13 23:00:00 TS -16.1649 147.783 998 bom main 221 211 P_____O__PO_P_ SH241967 -16.0547 147.572 -1 -16.3000 147.900 998 -16.2463 147.884 TC 35 998 -16.1000 147.600 1 -16.2338 148.169 TC 35 998 6 230
1967072S15149 1967 21 SP EA ELAINE 1967-03-14 00:00:00 TS -16.2241 147.709 main 211 183 O_____P__OP_O_ jtwc_sh SH241967 -16.1000 147.500 -1 -16.3627 147.844 997 -16.3000 147.800 TC 35 998 -16.1817 147.511 1 -16.3000 148.100 TC 35 998 5 229
1967072S15149 1967 21 SP EA ELAINE 1967-03-14 03:00:00 TS -16.3712 147.538 main 183 173 P_____P__PP_P_ SH241967 -16.2374 147.320 -1 -16.5218 147.707 997 -16.4781 147.638 TC 35 997 -16.3300 147.306 1 -16.4224 147.935 TC 35 997 4 231
1967072S15149 1967 21 SP EA ELAINE 1967-03-14 06:00:00 TS -16.4527 147.410 main 169 159 O_____P__PP_O_ jtwc_sh SH241967 -16.3000 147.200 -1 -16.6334 147.586 997 -16.6155 147.507 TC 35 997 -16.3670 147.168 1 -16.5000 147.800 TC 35 997 3 242
1967072S15149 1967 21 SP EA ELAINE 1967-03-14 09:00:00 TS -16.4986 147.291 main 159 149 P_____P__PP_P_ SH241967 -16.3225 147.100 -1 -16.6925 147.436 997 -16.6952 147.372 TC 35 997 -16.3365 147.065 1 -16.6224 147.673 TC 35 997 2 256
1967072S15149 1967 21 SP EA ELAINE 1967-03-14 11:00:00 TS -16.5022 147.201 997 bom main 149 139 P_____O__PO_P_ SH241967 -16.3109 147.036 -1 -16.7000 147.300 997 -16.7078 147.264 TC 35 997 -16.3000 147.000 1 -16.6838 147.567 TC 35 997 3 269
1967072S15149 1967 21 SP EA ELAINE 1967-03-14 12:00:00 TS -16.5010 147.136 main 139 120 O_____P__OP_O_ jtwc_sh SH241967 -16.3000 147.000 -1 -16.7071 147.186 997 -16.7000 147.200 TC 35 997 -16.2992 146.930 1 -16.7000 147.500 TC 35 997 5 277
1967072S15149 1967 21 SP EA ELAINE 1967-03-14 15:00:00 TS -16.4678 146.886 main 120 110 P_____P__PP_P_ SH241967 -16.2575 146.850 -1 -16.6776 146.844 997 -16.6360 146.894 TC 35 997 -16.2756 146.716 1 -16.7027 147.162 TC 35 997 5 283
1967072S15149 1967 21 SP EA ELAINE 1967-03-14 17:00:00 TS -16.4138 146.748 997 bom main 108 108 P_____O__PP_P_ SH241967 -16.2193 146.747 -1 -16.6000 146.700 997 -16.5521 146.739 TC 35 997 -16.2447 146.592 1 -16.6475 146.962 TC 35 997 4 298
1967072S15149 1967 21 SP EA ELAINE 1967-03-14 18:00:00 TS -16.3762 146.703 main 108 108 O_____P__OP_O_ jtwc_sh SH241967 -16.2000 146.700 -1 -16.5316 146.677 997 -16.5000 146.700 TC 35 997 -16.2254 146.542 1 -16.6000 146.900 TC 35 997 3 334
1967072S15149 1967 21 SP EA ELAINE 1967-03-14 21:00:00 TS -16.2332 146.656 main 123 123 P_____P__PP_P_ SH241967 -16.1649 146.517 -1 -16.2646 146.758 997 -16.2924 146.768 TC 35 997 -16.1550 146.466 1 -16.3574 146.910 TC 35 997 3 0
1967072S15149 1967 21 SP EA ELAINE 1967-03-14 23:00:00 TS -16.1312 146.714 997 bom main 128 128 P_____O__PO_P_ SH241967 -16.1280 146.474 -1 -16.1000 146.900 997 -16.1547 146.912 TC 35 997 -16.1000 146.500 1 -16.1766 147.023 TC 35 997 4 37
1967072S15149 1967 21 SP EA ELAINE 1967-03-15 00:00:00 TS -16.0813 146.773 main 138 138 O_____P__OP_O_ jtwc_sh SH241967 -16.1000 146.500 -1 -16.0338 146.972 996 -16.1000 147.000 TC 35 997 -16.0539 146.567 1 -16.1000 147.100 TC 35 997 6 60
1967072S15149 1967 21 SP EA ELAINE 1967-03-15 03:00:00 TS -15.9370 147.069 main 172 172 P_____P__PP_P_ SH241967 -15.9502 146.825 -1 -15.9029 147.263 996 -15.9900 147.263 TC 35 996 -15.8964 146.881 1 -15.9325 147.355 TC 35 996 7 69
1967072S15149 1967 21 SP EA ELAINE 1967-03-15 05:00:00 TS -15.8759 147.332 996 bom main 193 193 P_____O__PP_P_ SH241967 -15.8439 147.141 -1 -15.9000 147.500 996 -15.9802 147.481 TC 35 996 -15.7960 147.154 1 -15.8912 147.578 TC 35 996 8 79
1967072S15149 1967 21 SP EA ELAINE 1967-03-15 06:00:00 TS -15.8638 147.471 main 210 210 O_____P__OP_O_ jtwc_sh SH241967 -15.8000 147.300 -1 -15.9294 147.627 996 -16.0000 147.600 TC 35 996 -15.7535 147.300 1 -15.9000 147.700 TC 35 996 8 92
1967072S15149 1967 21 SP EA ELAINE 1967-03-15 09:00:00 TS -15.8960 147.895 main 246 246 P_____P__PP_P_ SH241967 -15.6826 147.738 -1 -16.1249 148.039 996 -16.1569 148.001 TC 35 996 -15.6811 147.738 1 -16.0476 148.115 TC 35 996 8 100
1967072S15149 1967 21 SP EA ELAINE 1967-03-15 11:00:00 TS -15.9785 148.158 996 bom main 269 269 P_____O__PO_P_ SH241967 -15.6715 147.995 -1 -16.3000 148.300 996 -16.3159 148.273 TC 35 996 -15.7000 148.000 2 -16.2120 148.384 TC 35 996 8 112
1967072S15149 1967 21 SP EA ELAINE 1967-03-15 12:00:00 TS -16.0407 148.264 main 279 274 O_____P__OP_O_ jtwc_sh SH241967 -15.7000 148.100 -1 -16.3861 148.409 996 -16.4000 148.400 TC 35 996 -15.7584 148.074 2 -16.3000 148.500 TC 35 996 7 136
1967072S15149 1967 21 SP EA ELAINE 1967-03-15 15:00:00 TS -16.2982 148.483 main 283 278 P_____P__PP_P_ SH241967 -15.9473 148.273 -1 -16.6727 148.685 996 -16.6524 148.697 TC 35 996 -16.0268 148.251 2 -16.5423 148.723 TC 35 996 7 146
1967072S15149 1967 21 SP EA ELAINE 1967-03-15 18:00:00 TS -16.6079 148.657 main 290 287 O_____P__PP_O_ jtwc_sh SH241967 -16.3000 148.400 -1 -16.9607 148.903 996 -16.9143 148.928 TC 35 996 -16.3725 148.409 2 -16.8000 148.900 TC 35 996 7 149
1967072S15149 1967 21 SP EA ELAINE 1967-03-15 21:00:00 TS -16.9055 148.859 main 302 300 P_____P__PP_P_ SH241967 -16.6373 148.590 -1 -17.1971 149.086 996 -17.1442 149.120 TC 35 996 -16.7144 148.611 2 -17.1025 149.157 TC 35 996 7 143
1967072S15149 1967 21 SP EA ELAINE 1967-03-15 23:00:00 TS -17.0621 149.020 996 bom main 307 307 P_____O__PO_P_ SH241967 -16.8284 148.777 -1 -17.3000 149.200 996 4 -17.2589 149.240 TC 35 996 -16.9000 148.800 1 -17.2567 149.325 TC 35 996 6 130
1967072S15149 1967 21 SP EA ELAINE 1967-03-16 00:00:00 TS -17.1040 149.111 main 313 313 O_____P__OP_O_ jtwc_sh SH241967 -16.9000 148.900 -1 -17.2931 149.230 996 -17.3000 149.300 TC 35 996 -16.9307 148.936 1 -17.3000 149.400 TC 35 996 6 95
1967072S15149 1967 21 SP EA ELAINE 1967-03-16 03:00:00 TS -17.0956 149.418 main 332 332 P_____P__PP_P_ SH241967 -16.9801 149.405 -1 -17.1905 149.294 996 -17.2183 149.428 TC 35 996 -16.9596 149.416 1 -17.2449 149.558 TC 35 996 6 83
1967072S15149 1967 21 SP EA ELAINE 1967-03-16 06:00:00 TS -17.0302 149.770 main 369 369 O_____P__PP_O_ jtwc_sh SH241967 -17.0000 150.000 -1 -17.0467 149.394 996 -17.0783 149.562 TC 35 996 -16.9563 149.966 1 -17.1000 149.700 TC 35 996 7 83
1967072S15149 1967 21 SP EA ELAINE 1967-03-16 09:00:00 TS -17.0100 150.149 main 385 385 P_____P__PP_P_ SH241967 -17.0625 150.573 -1 -16.9666 149.625 996 -16.9992 149.764 TC 35 996 -17.0020 150.535 1 -16.9671 149.826 TC 35 996 8 93
1967072S15149 1967 21 SP EA ELAINE 1967-03-16 11:00:00 TS -17.0630 150.436 996 bom main 392 392 P_____O__PO_P_ SH241967 -17.1412 150.934 -1 -17.0000 149.900 996 -17.0391 149.969 TC 35 996 -17.1000 150.900 1 -16.9567 149.980 TC 35 996 9 104
1967072S15149 1967 21 SP EA ELAINE 1967-03-16 12:00:00 TS -17.1181 150.590 main 405 400 O_____P__OP_O_ jtwc_sh SH241967 -17.2000 151.100 -1 -17.0410 150.081 996 -17.1000 150.100 TC 35 996 -17.1679 151.058 1 -17.0000 150.100 TC 35 996 10 115
1967072S15149 1967 21 SP EA ELAINE 1967-03-16 14:00:00 TS -17.2844 150.924 996 bom main 401 398 P_____O__PP_P_ SH241967 -17.3247 151.380 -1 -17.2000 150.500 996 -17.3219 150.468 TC 35 996 -17.3412 151.365 1 -17.1940 150.451 TC 35 996 11 120
1967072S15149 1967 21 SP EA ELAINE 1967-03-16 15:00:00 TS -17.3998 151.100 main 404 398 P_____P__PP_P_ SH241967 -17.4097 151.508 -1 -17.3254 150.722 996 -17.4679 150.680 TC 35 996 -17.4482 151.515 1 -17.3377 150.668 TC 35 996 14 130
1967072S15149 1967 21 SP EA ELAINE 1967-03-16 18:00:00 TS -17.8820 151.667 main 406 403 O_____P__PP_O_ jtwc_sh SH241967 -17.8000 151.900 -1 -17.9013 151.451 996 -18.0305 151.394 TC 35 996 -17.8605 151.957 1 -17.9000 151.400 TC 35 996 16 135
1967072S15149 1967 21 SP EA ELAINE 1967-03-16 21:00:00 TS -18.5306 152.285 main 418 413 P_____P__PP_P_ SH241967 -18.3950 152.385 -1 -18.6971 152.213 996 -18.7525 152.162 TC 35 996 -18.4265 152.399 1 -18.5178 152.165 TC 35 996 18 140
1967072S15149 1967 21 SP EA ELAINE 1967-03-16 23:00:00 TS -19.0580 152.698 996 bom main 423 415 P_____O__PO_P_ SH241967 -18.9114 152.728 -1 -19.3000 152.700 996 -19.3055 152.662 TC 35 996 -18.9000 152.700 1 -19.0194 152.668 TC 35 996 20 144
1967072S15149 1967 21 SP EA ELAINE 1967-03-17 00:00:00 TS -19.3376 152.898 main 415 372 O_____P__OP_O_ jtwc_sh SH241967 -19.2000 152.900 -1 -19.5671 152.928 996 -19.6000 152.900 TC 35 996 -19.1584 152.859 1 -19.3000 152.900 TC 35 996 21 149
1967072S15149 1967 21 SP EA ELAINE 1967-03-17 03:00:00 TS -20.2502 153.449 main 364 351 P_____P__PP_P_ SH241967 -20.1399 153.400 -1 -20.4323 153.579 996 -20.4763 153.493 TC 35 996 -20.0581 153.346 1 -20.2545 153.473 TC 35 996 22 152
1967072S15149 1967 21 SP EA ELAINE 1967-03-17 06:00:00 TS -21.2788 153.977 main 356 304 O_____P__PP_O_ jtwc_sh SH241967 -21.2000 153.900 -1 -21.4042 154.172 996 -21.4684 154.043 TC 35 996 -21.1002 153.847 1 -21.3000 154.000 TC 35 996 23 155
1967072S15149 1967 21 SP EA ELAINE 1967-03-17 09:00:00 TS -22.3427 154.503 main 304 252 P_____P__PP_P_ SH241967 -22.2548 154.394 -1 -22.4971 154.695 996 -22.5513 154.573 TC 35 996 -22.2281 154.357 1 -22.2700 154.608 TC 35 996 24 156
1967072S15149 1967 21 SP EA ELAINE 1967-03-17 11:00:00 TS -23.0942 154.848 996 bom main 243 232 P_____O__PO_P_ SH241967 -23.0052 154.728 -1 -23.3000 155.000 996 -23.3113 154.923 TC 35 996 -23.0000 154.700 1 -22.9439 155.009 TC 35 996 25 158
1967072S15149 1967 21 SP EA ELAINE 1967-03-17 12:00:00 TS -23.4901 155.019 main 225 207 O_____P__OP_O_ jtwc_sh SH241967 -23.4000 154.900 -1 -23.7373 155.126 996 -23.7000 155.100 TC 35 996 -23.4034 154.888 1 -23.3000 155.200 TC 35 996 27 159
1967072S15149 1967 21 SP EA ELAINE 1967-03-17 14:00:00 TS -24.3278 155.373 996 bom main 216 209 P_____O__PP_P_ SH241967 -24.2785 155.269 -1 -24.6000 155.400 996 -24.5002 155.479 TC 35 996 -24.2359 155.274 1 -24.0736 155.550 TC 35 996 27 159
1967072S15149 1967 21 SP EA ELAINE 1967-03-17 15:00:00 TS -24.7472 155.558 main 224 221 P_____P__PP_P_ SH241967 -24.7300 155.457 -1 -24.9817 155.587 996 -24.9072 155.666 TC 35 996 -24.6569 155.467 1 -24.4772 155.716 TC 35 996 27 158
1967072S15149 1967 21 SP EA ELAINE 1967-03-17 17:00:00 TS -25.5664 155.928 996 bom main 259 259 P_____O__PP_P_ SH241967 -25.6019 155.825 -1 -25.7000 156.000 996 -25.7118 156.029 TC 35 996 -25.4880 155.847 1 -25.2951 156.039 TC 35 996 26 158
1967072S15149 1967 21 SP EA ELAINE 1967-03-17 18:00:00 TS -25.9638 156.104 main 292 292 O_____P__OP_O_ jtwc_sh SH241967 -26.0000 156.000 -1 -26.0929 156.191 996 -26.1000 156.200 TC 35 996 -25.8899 156.030 1 -25.7000 156.200 TC 35 996 25 158
1967072S15149 1967 21 SP EA ELAINE 1967-03-17 21:00:00 TS -27.0891 156.616 main 319 317 P_____P__PP_P_ SH241967 -27.0349 156.510 -1 -27.2874 156.711 996 -27.2305 156.691 TC 35 996 -26.9920 156.529 1 -26.9551 156.744 TC 35 996 23 158
1967072S15149 1967 21 SP EA ELAINE 1967-03-17 23:00:00 TS -27.7253 156.903 996 bom main 328 326 P_____O__PO_P_ SH241967 -27.5780 156.789 -1 -28.0000 157.000 996 -27.9021 156.975 TC 35 996 -27.6000 156.800 2 -27.6936 157.067 TC 35 996 19 158
1967072S15149 1967 21 SP EA ELAINE 1967-03-18 00:00:00 TS -27.9872 157.021 main 333 333 O_____P__OP_O_ jtwc_sh SH241967 -27.8000 156.900 -1 -28.2916 157.123 996 -28.2000 157.100 TC 35 996 -27.8319 156.901 2 -28.0000 157.200 TC 35 996 14 160
1967072S15149 1967 21 SP EA ELAINE 1967-03-18 03:00:00 TS -28.5704 157.259 main 360 360 P_____P__PP_P_ SH241967 -28.2822 157.096 -1 -28.9783 157.401 996 -28.9199 157.399 TC 35 996 -28.3627 157.115 2 -28.5971 157.447 TC 35 996 10 161
1967072S15149 1967 21 SP EA ELAINE 1967-03-18 06:00:00 TS -28.9663 157.404 main 369 369 O_____P__PP_O_ jtwc_sh SH241967 -28.6000 157.200 -1 -29.4513 157.580 997 -29.4248 157.600 TC 35 997 -28.7217 157.241 2 -29.0000 157.600 TC 35 997 8 162
1967072S15149 1967 21 SP EA ELAINE 1967-03-18 09:00:00 TS -29.3350 157.547 main 381 381 P_____P__PP_P_ SH241967 -28.9425 157.343 -1 -29.7972 157.712 997 -29.7924 157.752 TC 35 997 -29.0054 157.331 2 -29.5300 157.800 TC 35 997 8 161
1967072S15149 1967 21 SP EA ELAINE 1967-03-18 11:00:00 TS -29.5674 157.645 998 bom main 395 395 P_____O__PO_P_ SH241967 -29.1745 157.444 -1 -30.0000 157.800 998 -29.9994 157.848 TC 35 997 -29.2000 157.400 2 -29.8562 157.933 TC 35 997 8 159
1967072S15149 1967 21 SP EA ELAINE 1967-03-18 12:00:00 TS -29.7267 157.716 main 406 406 O_____P__OP_O_ jtwc_sh SH241967 -29.3000 157.500 -1 -30.1382 157.845 998 -30.1000 157.900 TC 35 998 -29.3089 157.443 2 -30.0000 158.000 TC 35 998 9 158
1967072S15149 1967 21 SP EA ELAINE 1967-03-18 15:00:00 TS -30.1324 157.910 main 436 436 P_____P__PP_P_ SH241967 -29.7276 157.689 -1 -30.5170 157.968 998 -30.4108 158.084 TC 33 998 -29.6840 157.605 2 -30.3225 158.200 TC 32 998 9 156
1967072S15149 1967 21 SP EA ELAINE 1967-03-18 18:00:00 TS -30.5569 158.148 main 466 466 O_____P__PP_O_ jtwc_sh SH241967 -30.2000 157.900 -1 -30.8465 158.122 999 -30.7340 158.302 TC 32 999 -30.1150 157.809 2 -30.6000 158.400 TC 30 999 10 153
1967072S15149 1967 21 SP EA ELAINE 1967-03-18 21:00:00 TS -30.9802 158.409 main 503 503 ______P__PP_P_ SH241967 -1 -31.1319 158.362 999 -31.0652 158.545 TC 31 999 -30.5808 158.039 2 -30.9645 158.540 TC 30 999 9 149
1967072S15149 1967 21 SP EA ELAINE 1967-03-18 23:00:00 TS -31.2242 158.616 1000 bom main 522 522 ______O__PO_P_ SH241967 -1 -31.3000 158.600 1000 -31.2883 158.714 TC 30 999 -30.9000 158.200 2 -31.1975 158.688 TC 30 999 10 141
1967072S15149 1967 21 SP EA ELAINE 1967-03-19 00:00:00 TS -31.3505 158.766 main 541 541 ______P__O__O_ -1 -31.3886 158.724 1000 -31.4000 158.800 TC 30 1000 2 -31.3000 158.800 TC 30 1000 10 124
1967072S15149 1967 21 SP EA ELAINE 1967-03-19 03:00:00 TS -31.5810 159.242 main 580 580 ______P_____P_ -1 -31.6248 159.189 1000 TC 2 -31.5371 159.295 TC 30 1000 11 112
1967072S15149 1967 21 SP EA ELAINE 1967-03-19 06:00:00 TS -31.7550 159.919 main 648 648 ______P_____O_ -1 -31.8100 159.839 1000 TC 2 -31.7000 160.000 TC 30 1000 13 104
1967072S15149 1967 21 SP MM ELAINE 1967-03-19 08:00:00 TS -31.8436 160.460 1000 bom main 705 705 ______O_____P_ -1 -31.9000 160.400 1000 TC 2 -31.7873 160.520 TC 30 1000 15 100
1967072S15149 1967 21 SP MM ELAINE 1967-03-19 09:00:00 TS -31.8777 160.767 main 734 734 ______P_____P_ -1 -31.9339 160.724 1000 TC 2 -31.8216 160.810 TC 30 1000 17 95
1967072S15149 1967 21 SP MM ELAINE 1967-03-19 12:00:00 TS -31.9407 161.819 main 828 828 ______P_____O_ -1 -31.9949 161.844 1000 -31.9000 161.800 TC 30 1000 19 93
1967072S15149 1967 21 SP MM ELAINE 1967-03-19 15:00:00 TS -31.9780 163.019 main 933 862 ______P_____P_ -1 -32.0083 163.115 1001 -31.9578 162.955 TC 27 1001 21 92
1967072S15149 1967 21 SP MM ELAINE 1967-03-19 17:00:00 TS -31.9917 163.854 1002 bom main 853 836 ______O_____P_ -1 -32.0000 164.000 1002 -31.9875 163.780 TC 25 1001 20 91
1967072S15149 1967 21 SP MM ELAINE 1967-03-19 18:00:00 TS -32.0000 164.200 main 827 ____________O_ -1 -32.0000 164.200 TC 25 1002 18 92

Digital Typhoon Data and Search

About IBTrACS Database

This database is a web-friendly format of International Best Track Archive for Climate Stewardship (IBTrACS), a global best track data archive curated by NOAA dating back to 1842.

Updated: 2021-11-26